sensor_id;sensor_type;location;lat;lon;timestamp;temperature;humidity
24802;DHT22;12898;50.520;12.152;2023-05-01T00:00:09;2.00;99.90
24802;DHT22;12898;50.520;12.152;2023-05-01T00:02:35;2.00;99.90
24802;DHT22;12898;50.520;12.152;2023-05-01T00:05:02;1.90;99.90
24802;DHT22;12898;50.520;12.152;2023-05-01T00:07:28;1.80;99.90
24802;DHT22;12898;50.520;12.152;2023-05-01T00:09:56;1.80;99.90
24802;DHT22;12898;50.520;12.152;2023-05-01T00:12:22;1.80;99.90
24802;DHT22;12898;50.520;12.152;2023-05-01T00:14:48;1.80;99.90
24802;DHT22;12898;50.520;12.152;2023-05-01T00:17:14;1.80;99.90
24802;DHT22;12898;50.520;12.152;2023-05-01T00:19:40;1.80;99.90
24802;DHT22;12898;50.520;12.152;2023-05-01T00:22:05;1.80;99.90
24802;DHT22;12898;50.520;12.152;2023-05-01T00:24:31;1.70;99.90
24802;DHT22;12898;50.520;12.152;2023-05-01T00:26:57;1.70;99.90
24802;DHT22;12898;50.520;12.152;2023-05-01T00:29:23;1.70;99.90
24802;DHT22;12898;50.520;12.152;2023-05-01T00:31:49;1.60;99.90
24802;DHT22;12898;50.520;12.152;2023-05-01T00:34:14;1.60;99.90
24802;DHT22;12898;50.520;12.152;2023-05-01T00:36:40;1.60;99.90
24802;DHT22;12898;50.520;12.152;2023-05-01T00:39:06;1.60;99.90
24802;DHT22;12898;50.520;12.152;2023-05-01T00:41:34;1.60;99.90
24802;DHT22;12898;50.520;12.152;2023-05-01T00:44:00;1.50;99.90
24802;DHT22;12898;50.520;12.152;2023-05-01T00:46:30;1.50;99.90
24802;DHT22;12898;50.520;12.152;2023-05-01T00:48:58;1.50;99.90
24802;DHT22;12898;50.520;12.152;2023-05-01T00:51:25;1.40;99.90
24802;DHT22;12898;50.520;12.152;2023-05-01T00:53:54;1.40;99.90
24802;DHT22;12898;50.520;12.152;2023-05-01T00:56:20;1.40;99.90
24802;DHT22;12898;50.520;12.152;2023-05-01T00:58:49;1.40;99.90
24802;DHT22;12898;50.520;12.152;2023-05-01T01:01:18;1.40;99.90
24802;DHT22;12898;50.520;12.152;2023-05-01T01:03:45;1.40;99.90
24802;DHT22;12898;50.520;12.152;2023-05-01T01:06:15;1.30;99.90
24802;DHT22;12898;50.520;12.152;2023-05-01T01:11:23;1.30;99.90
24802;DHT22;12898;50.520;12.152;2023-05-01T01:21:53;1.10;99.90
24802;DHT22;12898;50.520;12.152;2023-05-01T01:25:22;1.10;99.90
24802;DHT22;12898;50.520;12.152;2023-05-01T01:28:20;1.10;99.90
24802;DHT22;12898;50.520;12.152;2023-05-01T01:34:01;1.20;99.90
24802;DHT22;12898;50.520;12.152;2023-05-01T01:39:52;1.10;99.90
24802;DHT22;12898;50.520;12.152;2023-05-01T01:42:34;1.10;99.90
24802;DHT22;12898;50.520;12.152;2023-05-01T01:45:05;1.00;99.90
24802;DHT22;12898;50.520;12.152;2023-05-01T01:47:40;1.00;99.90
24802;DHT22;12898;50.520;12.152;2023-05-01T01:50:06;0.90;99.90
24802;DHT22;12898;50.520;12.152;2023-05-01T01:52:35;0.90;99.90
24802;DHT22;12898;50.520;12.152;2023-05-01T01:55:05;0.90;99.90
24802;DHT22;12898;50.520;12.152;2023-05-01T01:57:34;0.90;99.90
24802;DHT22;12898;50.520;12.152;2023-05-01T02:00:01;0.90;99.90
24802;DHT22;12898;50.520;12.152;2023-05-01T02:02:28;0.90;99.90
24802;DHT22;12898;50.520;12.152;2023-05-01T02:04:55;0.80;99.90
24802;DHT22;12898;50.520;12.152;2023-05-01T02:07:22;0.80;99.90
24802;DHT22;12898;50.520;12.152;2023-05-01T02:09:49;0.80;99.90
24802;DHT22;12898;50.520;12.152;2023-05-01T02:12:17;0.80;99.90
24802;DHT22;12898;50.520;12.152;2023-05-01T02:14:44;0.80;99.90
24802;DHT22;12898;50.520;12.152;2023-05-01T02:17:10;0.80;99.90
24802;DHT22;12898;50.520;12.152;2023-05-01T02:19:38;0.80;99.90
24802;DHT22;12898;50.520;12.152;2023-05-01T02:22:09;0.80;99.90
24802;DHT22;12898;50.520;12.152;2023-05-01T02:24:36;0.80;99.90
24802;DHT22;12898;50.520;12.152;2023-05-01T02:27:07;0.80;99.90
24802;DHT22;12898;50.520;12.152;2023-05-01T02:29:37;0.70;99.90
24802;DHT22;12898;50.520;12.152;2023-05-01T02:32:04;0.70;99.90
24802;DHT22;12898;50.520;12.152;2023-05-01T02:34:33;0.70;99.90
24802;DHT22;12898;50.520;12.152;2023-05-01T02:37:00;0.70;99.90
24802;DHT22;12898;50.520;12.152;2023-05-01T02:39:26;0.60;99.90
24802;DHT22;12898;50.520;12.152;2023-05-01T02:41:51;0.60;99.90
24802;DHT22;12898;50.520;12.152;2023-05-01T02:44:20;0.60;99.90
24802;DHT22;12898;50.520;12.152;2023-05-01T02:46:49;0.60;99.90
24802;DHT22;12898;50.520;12.152;2023-05-01T02:49:17;0.50;99.90
24802;DHT22;12898;50.520;12.152;2023-05-01T02:51:45;0.50;99.90
24802;DHT22;12898;50.520;12.152;2023-05-01T02:54:11;0.50;99.90
24802;DHT22;12898;50.520;12.152;2023-05-01T02:56:37;0.40;99.90
24802;DHT22;12898;50.520;12.152;2023-05-01T02:59:03;0.50;99.90
24802;DHT22;12898;50.520;12.152;2023-05-01T03:01:29;0.40;99.90
24802;DHT22;12898;50.520;12.152;2023-05-01T03:03:55;0.50;99.90
24802;DHT22;12898;50.520;12.152;2023-05-01T03:06:20;0.50;99.90
24802;DHT22;12898;50.520;12.152;2023-05-01T03:08:46;0.40;99.90
24802;DHT22;12898;50.520;12.152;2023-05-01T03:11:12;0.40;99.90
24802;DHT22;12898;50.520;12.152;2023-05-01T03:13:38;0.40;99.90
24802;DHT22;12898;50.520;12.152;2023-05-01T03:16:04;0.40;99.90
24802;DHT22;12898;50.520;12.152;2023-05-01T03:18:30;0.40;99.90
24802;DHT22;12898;50.520;12.152;2023-05-01T03:20:55;0.40;99.90
24802;DHT22;12898;50.520;12.152;2023-05-01T03:23:22;0.40;99.90
24802;DHT22;12898;50.520;12.152;2023-05-01T03:25:48;0.30;99.90
24802;DHT22;12898;50.520;12.152;2023-05-01T03:28:14;0.40;99.90
24802;DHT22;12898;50.520;12.152;2023-05-01T03:30:41;0.30;99.90
24802;DHT22;12898;50.520;12.152;2023-05-01T03:33:07;0.30;99.90
24802;DHT22;12898;50.520;12.152;2023-05-01T03:35:32;0.30;99.90
24802;DHT22;12898;50.520;12.152;2023-05-01T03:37:58;0.30;99.90
24802;DHT22;12898;50.520;12.152;2023-05-01T03:40:24;0.30;99.90
24802;DHT22;12898;50.520;12.152;2023-05-01T03:42:49;0.30;99.90
24802;DHT22;12898;50.520;12.152;2023-05-01T03:45:15;0.30;99.90
24802;DHT22;12898;50.520;12.152;2023-05-01T03:47:41;0.20;99.90
24802;DHT22;12898;50.520;12.152;2023-05-01T03:50:07;0.30;99.90
24802;DHT22;12898;50.520;12.152;2023-05-01T03:52:33;0.30;99.90
24802;DHT22;12898;50.520;12.152;2023-05-01T03:54:59;0.30;99.90
24802;DHT22;12898;50.520;12.152;2023-05-01T03:57:25;0.20;99.90
24802;DHT22;12898;50.520;12.152;2023-05-01T03:59:52;0.20;99.90
24802;DHT22;12898;50.520;12.152;2023-05-01T04:02:18;0.20;99.90
24802;DHT22;12898;50.520;12.152;2023-05-01T04:04:44;0.30;99.90
24802;DHT22;12898;50.520;12.152;2023-05-01T04:07:10;0.30;99.90
24802;DHT22;12898;50.520;12.152;2023-05-01T04:09:36;0.30;99.90
24802;DHT22;12898;50.520;12.152;2023-05-01T04:12:02;0.30;99.90
24802;DHT22;12898;50.520;12.152;2023-05-01T04:14:27;0.30;99.90
24802;DHT22;12898;50.520;12.152;2023-05-01T04:16:53;0.30;99.90
24802;DHT22;12898;50.520;12.152;2023-05-01T04:19:19;0.30;99.90
24802;DHT22;12898;50.520;12.152;2023-05-01T04:21:45;0.30;99.90
24802;DHT22;12898;50.520;12.152;2023-05-01T04:24:11;0.40;99.90
24802;DHT22;12898;50.520;12.152;2023-05-01T04:26:37;0.40;99.90
24802;DHT22;12898;50.520;12.152;2023-05-01T04:29:03;0.50;99.90
24802;DHT22;12898;50.520;12.152;2023-05-01T04:31:29;0.50;99.90
24802;DHT22;12898;50.520;12.152;2023-05-01T04:33:55;0.60;99.90
24802;DHT22;12898;50.520;12.152;2023-05-01T04:36:20;0.60;99.90
24802;DHT22;12898;50.520;12.152;2023-05-01T04:38:46;0.70;99.90
24802;DHT22;12898;50.520;12.152;2023-05-01T04:41:12;0.70;99.90
24802;DHT22;12898;50.520;12.152;2023-05-01T04:43:38;0.80;99.90
24802;DHT22;12898;50.520;12.152;2023-05-01T04:46:04;0.90;99.90
24802;DHT22;12898;50.520;12.152;2023-05-01T04:48:29;1.00;99.90
24802;DHT22;12898;50.520;12.152;2023-05-01T04:50:55;1.10;99.90
24802;DHT22;12898;50.520;12.152;2023-05-01T04:53:21;1.20;99.90
24802;DHT22;12898;50.520;12.152;2023-05-01T04:55:47;1.40;99.90
24802;DHT22;12898;50.520;12.152;2023-05-01T04:58:13;1.50;99.90
24802;DHT22;12898;50.520;12.152;2023-05-01T05:00:38;1.60;99.90
24802;DHT22;12898;50.520;12.152;2023-05-01T05:03:04;1.70;99.90
24802;DHT22;12898;50.520;12.152;2023-05-01T05:05:30;1.90;99.90
24802;DHT22;12898;50.520;12.152;2023-05-01T05:07:56;2.00;99.90
24802;DHT22;12898;50.520;12.152;2023-05-01T05:10:22;2.20;99.90
24802;DHT22;12898;50.520;12.152;2023-05-01T05:12:48;2.40;99.90
24802;DHT22;12898;50.520;12.152;2023-05-01T05:15:14;2.50;99.90
24802;DHT22;12898;50.520;12.152;2023-05-01T05:17:40;2.70;99.90
24802;DHT22;12898;50.520;12.152;2023-05-01T05:20:07;2.80;99.90
24802;DHT22;12898;50.520;12.152;2023-05-01T05:22:36;2.90;99.90
24802;DHT22;12898;50.520;12.152;2023-05-01T05:25:03;3.10;99.90
24802;DHT22;12898;50.520;12.152;2023-05-01T05:27:30;3.20;99.90
24802;DHT22;12898;50.520;12.152;2023-05-01T05:30:01;3.40;99.90
24802;DHT22;12898;50.520;12.152;2023-05-01T05:32:27;3.50;99.90
24802;DHT22;12898;50.520;12.152;2023-05-01T05:34:53;3.60;99.90
24802;DHT22;12898;50.520;12.152;2023-05-01T05:37:19;3.70;99.90
24802;DHT22;12898;50.520;12.152;2023-05-01T05:39:45;3.70;99.90
24802;DHT22;12898;50.520;12.152;2023-05-01T05:42:10;3.80;99.90
24802;DHT22;12898;50.520;12.152;2023-05-01T05:44:36;3.90;99.90
24802;DHT22;12898;50.520;12.152;2023-05-01T05:47:03;4.00;99.90
24802;DHT22;12898;50.520;12.152;2023-05-01T05:49:29;4.10;99.90
24802;DHT22;12898;50.520;12.152;2023-05-01T05:51:54;4.20;99.90
24802;DHT22;12898;50.520;12.152;2023-05-01T05:54:20;4.20;99.90
24802;DHT22;12898;50.520;12.152;2023-05-01T05:56:46;4.30;99.90
24802;DHT22;12898;50.520;12.152;2023-05-01T05:59:11;4.30;99.90
24802;DHT22;12898;50.520;12.152;2023-05-01T06:01:37;4.40;99.90
24802;DHT22;12898;50.520;12.152;2023-05-01T06:04:04;4.40;99.90
24802;DHT22;12898;50.520;12.152;2023-05-01T06:06:31;4.50;99.90
24802;DHT22;12898;50.520;12.152;2023-05-01T06:08:57;4.60;99.90
24802;DHT22;12898;50.520;12.152;2023-05-01T06:11:23;4.70;99.90
24802;DHT22;12898;50.520;12.152;2023-05-01T06:13:49;4.80;99.90
24802;DHT22;12898;50.520;12.152;2023-05-01T06:16:14;4.90;99.90
24802;DHT22;12898;50.520;12.152;2023-05-01T06:18:40;5.00;99.90
24802;DHT22;12898;50.520;12.152;2023-05-01T06:21:06;5.20;99.90
24802;DHT22;12898;50.520;12.152;2023-05-01T06:23:31;5.40;99.90
24802;DHT22;12898;50.520;12.152;2023-05-01T06:25:58;5.50;99.90
24802;DHT22;12898;50.520;12.152;2023-05-01T06:28:24;5.60;99.90
24802;DHT22;12898;50.520;12.152;2023-05-01T06:30:50;5.70;99.90
24802;DHT22;12898;50.520;12.152;2023-05-01T06:33:15;5.90;99.90
24802;DHT22;12898;50.520;12.152;2023-05-01T06:35:41;6.00;99.90
24802;DHT22;12898;50.520;12.152;2023-05-01T06:38:07;6.20;99.90
24802;DHT22;12898;50.520;12.152;2023-05-01T06:40:32;6.30;99.90
24802;DHT22;12898;50.520;12.152;2023-05-01T06:43:03;6.50;99.90
24802;DHT22;12898;50.520;12.152;2023-05-01T06:45:28;6.70;99.90
24802;DHT22;12898;50.520;12.152;2023-05-01T06:47:54;7.00;99.90
24802;DHT22;12898;50.520;12.152;2023-05-01T06:50:20;7.20;99.90
24802;DHT22;12898;50.520;12.152;2023-05-01T06:52:46;7.40;99.90
24802;DHT22;12898;50.520;12.152;2023-05-01T06:55:11;7.60;99.90
24802;DHT22;12898;50.520;12.152;2023-05-01T06:57:37;7.70;99.90
24802;DHT22;12898;50.520;12.152;2023-05-01T07:00:05;7.90;99.90
24802;DHT22;12898;50.520;12.152;2023-05-01T07:02:31;8.10;99.90
24802;DHT22;12898;50.520;12.152;2023-05-01T07:04:57;8.30;99.90
24802;DHT22;12898;50.520;12.152;2023-05-01T07:07:22;8.50;99.90
24802;DHT22;12898;50.520;12.152;2023-05-01T07:09:48;8.80;99.90
24802;DHT22;12898;50.520;12.152;2023-05-01T07:12:14;9.00;99.90
24802;DHT22;12898;50.520;12.152;2023-05-01T07:14:39;9.20;99.90
24802;DHT22;12898;50.520;12.152;2023-05-01T07:17:06;9.40;99.90
24802;DHT22;12898;50.520;12.152;2023-05-01T07:19:33;9.70;99.90
24802;DHT22;12898;50.520;12.152;2023-05-01T07:21:59;10.00;99.90
24802;DHT22;12898;50.520;12.152;2023-05-01T07:24:25;10.20;99.90
24802;DHT22;12898;50.520;12.152;2023-05-01T07:26:51;10.40;99.90
24802;DHT22;12898;50.520;12.152;2023-05-01T07:29:17;10.70;99.90
24802;DHT22;12898;50.520;12.152;2023-05-01T07:31:44;10.80;99.90
24802;DHT22;12898;50.520;12.152;2023-05-01T07:34:10;11.20;99.90
24802;DHT22;12898;50.520;12.152;2023-05-01T07:36:36;11.50;99.90
24802;DHT22;12898;50.520;12.152;2023-05-01T07:39:01;11.80;99.90
24802;DHT22;12898;50.520;12.152;2023-05-01T07:41:28;12.30;99.90
24802;DHT22;12898;50.520;12.152;2023-05-01T07:43:57;12.60;99.90
24802;DHT22;12898;50.520;12.152;2023-05-01T07:46:23;13.00;99.90
24802;DHT22;12898;50.520;12.152;2023-05-01T07:48:49;13.40;99.90
24802;DHT22;12898;50.520;12.152;2023-05-01T07:51:15;13.70;99.90
24802;DHT22;12898;50.520;12.152;2023-05-01T07:53:41;14.00;99.90
24802;DHT22;12898;50.520;12.152;2023-05-01T07:56:08;14.30;99.90
24802;DHT22;12898;50.520;12.152;2023-05-01T07:58:35;14.60;98.90
24802;DHT22;12898;50.520;12.152;2023-05-01T08:01:01;14.70;92.00
24802;DHT22;12898;50.520;12.152;2023-05-01T08:03:28;14.80;93.30
24802;DHT22;12898;50.520;12.152;2023-05-01T08:05:55;15.00;89.70
24802;DHT22;12898;50.520;12.152;2023-05-01T08:08:21;15.10;87.10
24802;DHT22;12898;50.520;12.152;2023-05-01T08:10:47;15.20;90.30
24802;DHT22;12898;50.520;12.152;2023-05-01T08:13:13;15.20;80.70
24802;DHT22;12898;50.520;12.152;2023-05-01T08:15:39;15.20;75.60
24802;DHT22;12898;50.520;12.152;2023-05-01T08:18:07;15.10;75.50
24802;DHT22;12898;50.520;12.152;2023-05-01T08:20:34;15.10;79.90
24802;DHT22;12898;50.520;12.152;2023-05-01T08:23:00;15.30;77.00
24802;DHT22;12898;50.520;12.152;2023-05-01T08:25:26;15.50;73.50
24802;DHT22;12898;50.520;12.152;2023-05-01T08:27:52;15.60;72.10
24802;DHT22;12898;50.520;12.152;2023-05-01T08:30:18;15.80;74.40
24802;DHT22;12898;50.520;12.152;2023-05-01T08:32:43;15.90;76.00
24802;DHT22;12898;50.520;12.152;2023-05-01T08:35:09;16.20;75.80
24802;DHT22;12898;50.520;12.152;2023-05-01T08:37:35;16.60;72.60
24802;DHT22;12898;50.520;12.152;2023-05-01T08:40:01;16.90;70.30
24802;DHT22;12898;50.520;12.152;2023-05-01T08:42:36;17.20;65.60
24802;DHT22;12898;50.520;12.152;2023-05-01T08:45:06;17.30;64.60
24802;DHT22;12898;50.520;12.152;2023-05-01T08:47:36;17.60;67.40
24802;DHT22;12898;50.520;12.152;2023-05-01T08:50:09;17.70;65.30
24802;DHT22;12898;50.520;12.152;2023-05-01T08:52:41;18.00;68.40
24802;DHT22;12898;50.520;12.152;2023-05-01T08:55:11;18.40;67.90
24802;DHT22;12898;50.520;12.152;2023-05-01T08:57:38;18.70;66.90
24802;DHT22;12898;50.520;12.152;2023-05-01T09:00:15;19.10;65.20
24802;DHT22;12898;50.520;12.152;2023-05-01T09:02:46;19.30;62.80
24802;DHT22;12898;50.520;12.152;2023-05-01T09:05:15;19.70;62.60
24802;DHT22;12898;50.520;12.152;2023-05-01T09:07:42;19.90;60.90
24802;DHT22;12898;50.520;12.152;2023-05-01T09:10:11;19.80;58.50
24802;DHT22;12898;50.520;12.152;2023-05-01T09:12:39;19.70;57.50
24802;DHT22;12898;50.520;12.152;2023-05-01T09:15:06;19.70;60.20
24802;DHT22;12898;50.520;12.152;2023-05-01T09:17:33;19.90;57.70
24802;DHT22;12898;50.520;12.152;2023-05-01T09:20:01;19.80;56.50
24802;DHT22;12898;50.520;12.152;2023-05-01T09:22:31;19.90;57.20
24802;DHT22;12898;50.520;12.152;2023-05-01T09:24:58;19.60;56.40
24802;DHT22;12898;50.520;12.152;2023-05-01T09:27:25;19.60;56.90
24802;DHT22;12898;50.520;12.152;2023-05-01T09:29:51;19.60;57.20
24802;DHT22;12898;50.520;12.152;2023-05-01T09:32:19;19.30;54.70
24802;DHT22;12898;50.520;12.152;2023-05-01T09:34:46;19.20;57.10
24802;DHT22;12898;50.520;12.152;2023-05-01T09:40:11;19.30;57.90
24802;DHT22;12898;50.520;12.152;2023-05-01T09:42:48;19.60;58.30
24802;DHT22;12898;50.520;12.152;2023-05-01T09:45:18;20.00;59.00
24802;DHT22;12898;50.520;12.152;2023-05-01T09:47:45;20.20;54.90
24802;DHT22;12898;50.520;12.152;2023-05-01T09:50:30;20.20;53.80
24802;DHT22;12898;50.520;12.152;2023-05-01T09:52:58;20.50;55.60
24802;DHT22;12898;50.520;12.152;2023-05-01T09:55:25;21.00;56.10
24802;DHT22;12898;50.520;12.152;2023-05-01T09:57:52;21.30;53.50
24802;DHT22;12898;50.520;12.152;2023-05-01T10:00:17;21.60;52.70
24802;DHT22;12898;50.520;12.152;2023-05-01T10:02:46;21.40;52.10
24802;DHT22;12898;50.520;12.152;2023-05-01T10:05:13;21.30;54.50
24802;DHT22;12898;50.520;12.152;2023-05-01T10:07:39;21.40;53.40
24802;DHT22;12898;50.520;12.152;2023-05-01T10:10:21;21.70;52.70
24802;DHT22;12898;50.520;12.152;2023-05-01T10:12:47;21.80;51.00
24802;DHT22;12898;50.520;12.152;2023-05-01T10:15:13;21.90;48.50
24802;DHT22;12898;50.520;12.152;2023-05-01T10:17:41;21.90;50.80
24802;DHT22;12898;50.520;12.152;2023-05-01T10:20:09;21.80;51.50
24802;DHT22;12898;50.520;12.152;2023-05-01T10:22:36;22.10;50.90
24802;DHT22;12898;50.520;12.152;2023-05-01T10:25:05;22.40;51.40
24802;DHT22;12898;50.520;12.152;2023-05-01T10:27:33;22.60;49.00
24802;DHT22;12898;50.520;12.152;2023-05-01T10:30:02;22.50;47.10
24802;DHT22;12898;50.520;12.152;2023-05-01T10:32:29;22.60;46.70
24802;DHT22;12898;50.520;12.152;2023-05-01T10:35:00;22.90;48.00
24802;DHT22;12898;50.520;12.152;2023-05-01T10:37:46;23.00;47.70
24802;DHT22;12898;50.520;12.152;2023-05-01T10:40:47;23.00;45.10
24802;DHT22;12898;50.520;12.152;2023-05-01T10:43:18;23.20;45.10
24802;DHT22;12898;50.520;12.152;2023-05-01T10:45:46;23.00;45.70
24802;DHT22;12898;50.520;12.152;2023-05-01T10:51:13;22.90;44.50
24802;DHT22;12898;50.520;12.152;2023-05-01T10:53:42;23.00;47.60
24802;DHT22;12898;50.520;12.152;2023-05-01T10:58:56;23.50;44.60
24802;DHT22;12898;50.520;12.152;2023-05-01T11:04:01;23.20;46.30
24802;DHT22;12898;50.520;12.152;2023-05-01T11:09:50;23.20;47.60
24802;DHT22;12898;50.520;12.152;2023-05-01T11:15:32;23.60;45.80
24802;DHT22;12898;50.520;12.152;2023-05-01T11:18:01;23.50;45.90
24802;DHT22;12898;50.520;12.152;2023-05-01T11:22:56;23.60;44.20
24802;DHT22;12898;50.520;12.152;2023-05-01T11:25:28;23.50;45.90
24802;DHT22;12898;50.520;12.152;2023-05-01T11:27:59;23.70;45.30
24802;DHT22;12898;50.520;12.152;2023-05-01T11:30:35;23.90;47.70
24802;DHT22;12898;50.520;12.152;2023-05-01T11:33:02;23.90;46.10
24802;DHT22;12898;50.520;12.152;2023-05-01T11:35:28;24.00;44.70
24802;DHT22;12898;50.520;12.152;2023-05-01T11:37:54;24.20;45.90
24802;DHT22;12898;50.520;12.152;2023-05-01T11:40:25;23.80;41.80
24802;DHT22;12898;50.520;12.152;2023-05-01T11:43:00;23.60;44.10
24802;DHT22;12898;50.520;12.152;2023-05-01T11:45:26;23.70;44.60
24802;DHT22;12898;50.520;12.152;2023-05-01T11:47:52;23.60;45.10
24802;DHT22;12898;50.520;12.152;2023-05-01T11:50:18;23.40;44.70
24802;DHT22;12898;50.520;12.152;2023-05-01T11:52:50;23.70;47.60
24802;DHT22;12898;50.520;12.152;2023-05-01T11:55:20;24.10;45.90
24802;DHT22;12898;50.520;12.152;2023-05-01T11:57:47;24.30;44.30
24802;DHT22;12898;50.520;12.152;2023-05-01T12:00:16;24.50;47.30
24802;DHT22;12898;50.520;12.152;2023-05-01T12:05:28;24.60;42.40
24802;DHT22;12898;50.520;12.152;2023-05-01T12:10:41;24.60;44.00
24802;DHT22;12898;50.520;12.152;2023-05-01T12:13:09;24.70;45.00
24802;DHT22;12898;50.520;12.152;2023-05-01T12:15:38;24.70;46.30
24802;DHT22;12898;50.520;12.152;2023-05-01T12:18:07;24.30;44.30
24802;DHT22;12898;50.520;12.152;2023-05-01T12:23:10;23.90;43.60
24802;DHT22;12898;50.520;12.152;2023-05-01T12:25:38;23.40;44.00
24802;DHT22;12898;50.520;12.152;2023-05-01T12:28:18;23.30;44.80
24802;DHT22;12898;50.520;12.152;2023-05-01T12:30:45;23.00;46.00
24802;DHT22;12898;50.520;12.152;2023-05-01T12:33:13;23.00;46.30
24802;DHT22;12898;50.520;12.152;2023-05-01T12:35:41;23.30;46.30
24802;DHT22;12898;50.520;12.152;2023-05-01T12:38:21;23.60;47.70
24802;DHT22;12898;50.520;12.152;2023-05-01T12:40:52;23.90;48.70
24802;DHT22;12898;50.520;12.152;2023-05-01T12:43:30;23.70;44.90
24802;DHT22;12898;50.520;12.152;2023-05-01T12:45:56;23.60;44.00
24802;DHT22;12898;50.520;12.152;2023-05-01T12:48:23;23.60;46.50
24802;DHT22;12898;50.520;12.152;2023-05-01T12:50:50;23.20;45.50
24802;DHT22;12898;50.520;12.152;2023-05-01T12:53:21;23.10;45.30
24802;DHT22;12898;50.520;12.152;2023-05-01T12:55:55;22.80;45.20
24802;DHT22;12898;50.520;12.152;2023-05-01T12:58:22;22.90;46.50
24802;DHT22;12898;50.520;12.152;2023-05-01T13:00:50;22.80;48.70
24802;DHT22;12898;50.520;12.152;2023-05-01T13:03:42;22.90;46.30
24802;DHT22;12898;50.520;12.152;2023-05-01T13:06:07;23.00;47.60
24802;DHT22;12898;50.520;12.152;2023-05-01T13:08:36;22.90;46.60
24802;DHT22;12898;50.520;12.152;2023-05-01T13:11:16;22.70;48.60
24802;DHT22;12898;50.520;12.152;2023-05-01T13:13:43;22.90;48.40
24802;DHT22;12898;50.520;12.152;2023-05-01T13:16:12;22.80;47.40
24802;DHT22;12898;50.520;12.152;2023-05-01T13:18:48;22.70;47.00
24802;DHT22;12898;50.520;12.152;2023-05-01T13:21:18;22.40;48.10
24802;DHT22;12898;50.520;12.152;2023-05-01T13:24:00;22.10;49.00
24802;DHT22;12898;50.520;12.152;2023-05-01T13:26:28;22.00;48.70
24802;DHT22;12898;50.520;12.152;2023-05-01T13:28:57;21.80;46.50
24802;DHT22;12898;50.520;12.152;2023-05-01T13:31:24;21.40;49.00
24802;DHT22;12898;50.520;12.152;2023-05-01T13:33:52;21.20;49.50
24802;DHT22;12898;50.520;12.152;2023-05-01T13:36:20;21.00;49.00
24802;DHT22;12898;50.520;12.152;2023-05-01T13:38:48;20.80;50.90
24802;DHT22;12898;50.520;12.152;2023-05-01T13:41:24;20.60;50.10
24802;DHT22;12898;50.520;12.152;2023-05-01T13:43:52;20.50;52.40
24802;DHT22;12898;50.520;12.152;2023-05-01T13:46:20;20.60;52.90
24802;DHT22;12898;50.520;12.152;2023-05-01T13:48:47;20.50;51.20
24802;DHT22;12898;50.520;12.152;2023-05-01T13:51:17;20.70;53.30
24802;DHT22;12898;50.520;12.152;2023-05-01T13:53:44;20.60;49.70
24802;DHT22;12898;50.520;12.152;2023-05-01T13:56:10;20.40;50.60
24802;DHT22;12898;50.520;12.152;2023-05-01T13:58:40;20.30;51.70
24802;DHT22;12898;50.520;12.152;2023-05-01T14:01:22;20.20;51.30
24802;DHT22;12898;50.520;12.152;2023-05-01T14:03:48;20.10;53.00
24802;DHT22;12898;50.520;12.152;2023-05-01T14:06:15;20.20;54.40
24802;DHT22;12898;50.520;12.152;2023-05-01T14:08:43;20.30;52.60
24802;DHT22;12898;50.520;12.152;2023-05-01T14:11:09;20.40;51.50
24802;DHT22;12898;50.520;12.152;2023-05-01T14:13:43;20.10;51.20
24802;DHT22;12898;50.520;12.152;2023-05-01T14:18:53;20.10;52.30
24802;DHT22;12898;50.520;12.152;2023-05-01T14:21:24;20.10;54.60
24802;DHT22;12898;50.520;12.152;2023-05-01T14:23:54;19.90;51.90
24802;DHT22;12898;50.520;12.152;2023-05-01T14:26:21;19.70;53.30
24802;DHT22;12898;50.520;12.152;2023-05-01T14:28:50;19.40;52.60
24802;DHT22;12898;50.520;12.152;2023-05-01T14:31:27;19.20;55.00
24802;DHT22;12898;50.520;12.152;2023-05-01T14:33:56;19.20;57.20
24802;DHT22;12898;50.520;12.152;2023-05-01T14:36:23;19.10;57.50
24802;DHT22;12898;50.520;12.152;2023-05-01T14:38:49;19.20;55.80
24802;DHT22;12898;50.520;12.152;2023-05-01T14:41:18;19.20;56.10
24802;DHT22;12898;50.520;12.152;2023-05-01T14:43:44;19.10;55.70
24802;DHT22;12898;50.520;12.152;2023-05-01T14:46:29;19.00;55.20
24802;DHT22;12898;50.520;12.152;2023-05-01T14:48:55;18.90;56.20
24802;DHT22;12898;50.520;12.152;2023-05-01T14:51:22;18.80;57.20
24802;DHT22;12898;50.520;12.152;2023-05-01T14:53:47;18.80;57.30
24802;DHT22;12898;50.520;12.152;2023-05-01T14:56:13;18.70;57.20
24802;DHT22;12898;50.520;12.152;2023-05-01T14:58:39;18.60;57.80
24802;DHT22;12898;50.520;12.152;2023-05-01T15:01:05;18.50;57.90
24802;DHT22;12898;50.520;12.152;2023-05-01T15:03:33;18.40;58.30
24802;DHT22;12898;50.520;12.152;2023-05-01T15:06:08;18.30;59.20
24802;DHT22;12898;50.520;12.152;2023-05-01T15:08:34;18.10;57.70
24802;DHT22;12898;50.520;12.152;2023-05-01T15:11:00;18.00;58.90
24802;DHT22;12898;50.520;12.152;2023-05-01T15:13:26;18.00;58.30
24802;DHT22;12898;50.520;12.152;2023-05-01T15:15:53;17.90;58.80
24802;DHT22;12898;50.520;12.152;2023-05-01T15:18:20;17.80;58.90
24802;DHT22;12898;50.520;12.152;2023-05-01T15:20:46;17.80;60.40
24802;DHT22;12898;50.520;12.152;2023-05-01T15:23:12;17.90;60.10
24802;DHT22;12898;50.520;12.152;2023-05-01T15:25:39;17.90;59.30
24802;DHT22;12898;50.520;12.152;2023-05-01T15:28:07;17.90;59.70
24802;DHT22;12898;50.520;12.152;2023-05-01T15:30:33;17.90;59.30
24802;DHT22;12898;50.520;12.152;2023-05-01T15:32:59;17.90;60.10
24802;DHT22;12898;50.520;12.152;2023-05-01T15:35:24;17.90;60.70
24802;DHT22;12898;50.520;12.152;2023-05-01T15:37:50;17.90;61.60
24802;DHT22;12898;50.520;12.152;2023-05-01T15:40:17;17.90;60.20
24802;DHT22;12898;50.520;12.152;2023-05-01T15:42:42;17.80;57.80
24802;DHT22;12898;50.520;12.152;2023-05-01T15:45:12;17.70;61.00
24802;DHT22;12898;50.520;12.152;2023-05-01T15:47:38;17.70;65.70
24802;DHT22;12898;50.520;12.152;2023-05-01T15:50:07;17.50;63.90
24802;DHT22;12898;50.520;12.152;2023-05-01T15:52:34;17.40;63.50
24802;DHT22;12898;50.520;12.152;2023-05-01T15:55:00;17.20;64.50
24802;DHT22;12898;50.520;12.152;2023-05-01T15:57:26;17.10;65.90
24802;DHT22;12898;50.520;12.152;2023-05-01T15:59:54;17.00;66.60
24802;DHT22;12898;50.520;12.152;2023-05-01T16:02:20;16.80;66.60
24802;DHT22;12898;50.520;12.152;2023-05-01T16:04:46;16.70;68.00
24802;DHT22;12898;50.520;12.152;2023-05-01T16:07:12;16.50;67.70
24802;DHT22;12898;50.520;12.152;2023-05-01T16:09:38;16.30;65.40
24802;DHT22;12898;50.520;12.152;2023-05-01T16:12:06;16.10;69.50
24802;DHT22;12898;50.520;12.152;2023-05-01T16:14:34;15.90;68.70